Time;durP1;ratioP1;P1;durP2;ratioP2;P2;SDS_P1;SDS_P2;PMS_P1;PMS_P2;Temp;Humidity;BMP_temperature;BMP_pressure;BME280_temperature;BME280_humidity;BME280_pressure;Samples;Min_cycle;Max_cycle;Signal;HPM_P1;HPM_P2
2022/01/02 00:00:17;;;;;;;19.63;6.38;;;;;;;10.74;100.00;101633.66;5068549;28;20468;-69
2022/01/02 00:02:51;;;;;;;20.83;6.38;;;;;;;10.68;100.00;101636.22;5069505;28;20024;-70
2022/01/02 00:05:21;;;;;;;19.27;6.50;;;;;;;10.65;100.00;101630.88;5072509;28;20020;-70
2022/01/02 00:08:08;;;;;;;19.73;6.45;;;;;;;10.65;100.00;101636.16;5072458;28;20501;-70
2022/01/02 00:10:48;;;;;;;20.05;6.40;;;;;;;10.61;100.00;101652.84;5072706;28;20021;-70
2022/01/02 00:13:28;;;;;;;20.25;6.70;;;;;;;10.64;100.00;101640.59;5069617;28;20031;-68
2022/01/02 00:15:56;;;;;;;21.23;6.90;;;;;;;10.66;100.00;101659.13;5072745;28;20086;-69
2022/01/02 00:18:26;;;;;;;19.90;6.25;;;;;;;10.75;100.00;101667.19;5072344;28;20054;-70
2022/01/02 00:20:52;;;;;;;21.65;6.30;;;;;;;10.79;100.00;101668.13;5072389;28;20056;-71
2022/01/02 00:23:23;;;;;;;19.92;6.75;;;;;;;10.75;100.00;101658.38;5072722;28;20097;-71
2022/01/02 00:25:53;;;;;;;20.95;6.63;;;;;;;10.78;100.00;101656.66;5072543;28;20437;-70
2022/01/02 00:28:18;;;;;;;20.63;6.45;;;;;;;10.82;100.00;101642.63;5072450;28;20096;-70
2022/01/02 00:30:45;;;;;;;20.33;6.65;;;;;;;10.80;100.00;101644.38;5072012;28;20590;-71
2022/01/02 00:33:11;;;;;;;20.02;6.43;;;;;;;10.76;100.00;101636.34;5072566;28;20138;-70
2022/01/02 00:35:37;;;;;;;20.67;6.28;;;;;;;10.57;100.00;101632.50;5072754;28;20060;-71
2022/01/02 00:38:04;;;;;;;20.85;6.65;;;;;;;10.37;100.00;101637.44;5072058;28;20483;-70
2022/01/02 00:40:33;;;;;;;20.48;6.60;;;;;;;10.15;100.00;101639.69;5072334;28;20072;-70
2022/01/02 00:43:03;;;;;;;21.40;6.80;;;;;;;10.01;100.00;101636.75;5072530;28;20029;-72
2022/01/02 00:45:35;;;;;;;21.10;7.30;;;;;;;9.81;100.00;101646.03;5072053;28;20028;-71
2022/01/02 00:48:08;;;;;;;21.15;7.10;;;;;;;9.66;100.00;101647.50;5072333;28;20502;-73
2022/01/02 00:50:41;;;;;;;21.88;7.40;;;;;;;9.55;100.00;101654.31;5072168;28;20578;-70
2022/01/02 00:53:09;;;;;;;22.23;7.70;;;;;;;9.45;100.00;101650.59;5072040;28;20024;-70
2022/01/02 00:55:35;;;;;;;22.05;7.53;;;;;;;9.44;100.00;101643.53;5071880;28;20081;-70
2022/01/02 00:58:11;;;;;;;22.60;7.72;;;;;;;9.37;100.00;101631.94;5072271;28;20032;-71
2022/01/02 01:00:36;;;;;;;22.83;7.90;;;;;;;9.36;100.00;101630.16;5072288;28;20383;-69
2022/01/02 01:03:09;;;;;;;22.02;7.90;;;;;;;9.46;100.00;101625.06;5071985;28;20032;-69
2022/01/02 01:05:36;;;;;;;22.77;8.32;;;;;;;9.33;100.00;101619.53;5072111;28;20082;-70
2022/01/02 01:08:07;;;;;;;21.38;8.27;;;;;;;9.32;100.00;101620.41;5072137;28;20458;-69
2022/01/02 01:10:39;;;;;;;23.33;8.80;;;;;;;9.32;100.00;101608.94;5071792;28;20464;-69
2022/01/02 01:13:06;;;;;;;22.65;8.43;;;;;;;9.28;100.00;101608.00;5074903;28;20032;-69
2022/01/02 01:15:34;;;;;;;23.27;9.02;;;;;;;9.20;100.00;101606.94;5075465;28;20039;-69
2022/01/02 01:18:01;;;;;;;25.63;9.13;;;;;;;9.20;100.00;101601.66;5075297;28;20029;-69
2022/01/02 01:20:29;;;;;;;22.40;9.18;;;;;;;9.18;100.00;101606.91;5075394;28;20028;-69
2022/01/02 01:22:55;;;;;;;23.48;9.52;;;;;;;9.14;100.00;101604.16;5074673;28;20200;-69
2022/01/02 01:25:21;;;;;;;26.45;10.00;;;;;;;9.13;100.00;101600.63;5075313;28;20078;-69
2022/01/02 01:27:49;;;;;;;24.05;10.15;;;;;;;9.12;100.00;101600.59;5075305;28;20024;-70
2022/01/02 01:30:17;;;;;;;24.48;10.00;;;;;;;9.12;100.00;101592.69;5075396;28;20049;-69
2022/01/02 01:32:43;;;;;;;25.55;10.15;;;;;;;9.16;100.00;101587.50;5073787;28;20395;-69
2022/01/02 01:35:09;;;;;;;25.90;10.15;;;;;;;9.18;100.00;101583.16;5075318;28;20029;-70
2022/01/02 01:37:35;;;;;;;24.58;10.10;;;;;;;9.15;100.00;101583.09;5075315;28;20031;-70
2022/01/02 01:40:01;;;;;;;26.75;11.18;;;;;;;9.15;100.00;101575.19;5075297;28;20024;-71
2022/01/02 01:42:36;;;;;;;25.90;10.27;;;;;;;9.14;100.00;101575.13;5075388;28;20352;-72
2022/01/02 01:45:28;;;;;;;25.00;10.30;;;;;;;9.15;100.00;101584.84;5075037;28;20025;-71
2022/01/02 01:47:55;;;;;;;26.35;10.73;;;;;;;9.13;100.00;101571.63;5073836;28;20033;-70
2022/01/02 01:50:24;;;;;;;23.95;10.48;;;;;;;9.07;100.00;101577.66;5074933;28;20544;-70
2022/01/02 01:52:50;;;;;;;26.08;10.73;;;;;;;9.10;100.00;101557.47;5074871;28;20074;-73
2022/01/02 01:55:16;;;;;;;26.25;9.60;;;;;;;9.10;100.00;101558.38;5074708;28;20460;-73
2022/01/02 01:57:42;;;;;;;24.52;10.13;;;;;;;9.03;100.00;101562.63;5074958;28;20107;-72
2022/01/02 02:00:13;;;;;;;26.70;10.05;;;;;;;9.06;100.00;101546.84;5075011;28;20103;-70
2022/01/02 02:02:39;;;;;;;25.33;9.50;;;;;;;9.09;100.00;101530.22;5070764;28;20552;-69
2022/01/02 02:05:06;;;;;;;24.85;9.48;;;;;;;9.11;100.00;101543.44;5073542;28;20028;-70
2022/01/02 02:07:39;;;;;;;26.80;9.70;;;;;;;9.14;100.00;101538.22;5074746;28;20029;-69
2022/01/02 02:10:13;;;;;;;25.00;9.18;;;;;;;9.12;100.00;101521.47;5074841;28;20050;-70
2022/01/02 02:12:42;;;;;;;24.63;9.93;;;;;;;9.16;100.00;101516.28;5074452;28;20052;-70
2022/01/02 02:15:10;;;;;;;27.00;9.48;;;;;;;9.19;100.00;101515.47;5074751;28;20393;-70
2022/01/02 02:17:36;;;;;;;26.15;9.70;;;;;;;9.21;100.00;101514.63;5074481;28;20021;-71
2022/01/02 02:20:17;;;;;;;26.88;9.35;;;;;;;9.25;100.00;101505.03;5074374;28;20032;-70
2022/01/02 02:22:46;;;;;;;25.15;9.30;;;;;;;9.25;100.00;101499.75;5070385;28;20016;-70
2022/01/02 02:25:13;;;;;;;25.77;9.05;;;;;;;9.26;100.00;101509.44;5070591;28;20025;-71
2022/01/02 02:27:38;;;;;;;30.00;10.05;;;;;;;9.27;100.00;101505.06;5070220;28;20024;-72
2022/01/02 02:30:05;;;;;;;27.27;9.27;;;;;;;9.26;100.00;101488.31;5072972;28;20047;-70
2022/01/02 02:32:31;;;;;;;24.42;9.30;;;;;;;9.29;100.00;101491.06;5074289;28;20028;-70
2022/01/02 02:34:56;;;;;;;24.60;9.02;;;;;;;9.29;100.00;101488.41;5074249;28;20074;-71
2022/01/02 02:37:22;;;;;;;25.13;8.93;;;;;;;9.35;100.00;101485.88;5073937;28;20071;-70
2022/01/02 02:39:48;;;;;;;25.42;9.35;;;;;;;9.34;100.00;101505.22;5073984;28;20099;-70
2022/01/02 02:42:27;;;;;;;26.10;9.82;;;;;;;9.33;100.00;101490.22;5073941;28;20017;-70
2022/01/02 02:44:59;;;;;;;27.25;8.98;;;;;;;9.35;100.00;101477.97;5073942;28;20103;-70
2022/01/02 02:50:09;;;;;;;26.65;9.65;;;;;;;9.32;100.00;101469.09;5070065;28;20064;-70
2022/01/02 02:52:44;;;;;;;26.92;9.43;;;;;;;9.32;100.00;101474.38;5074068;28;20020;-69
2022/01/02 02:55:10;;;;;;;28.30;10.50;;;;;;;9.30;100.00;101460.28;5073894;28;20441;-69
2022/01/02 02:57:38;;;;;;;27.35;10.00;;;;;;;9.28;100.00;101462.88;5073506;28;20020;-70
2022/01/02 03:00:05;;;;;;;27.40;9.95;;;;;;;9.32;100.00;101458.53;5074116;28;20058;-69
2022/01/02 03:02:30;;;;;;;27.05;9.60;;;;;;;9.32;100.00;101454.16;5073376;28;20459;-69
2022/01/02 03:04:55;;;;;;;27.30;9.40;;;;;;;9.34;100.00;101460.34;5073372;28;20024;-71
2022/01/02 03:07:20;;;;;;;26.30;9.77;;;;;;;9.34;100.00;101468.28;5073781;28;20037;-70
2022/01/02 03:09:49;;;;;;;27.35;9.52;;;;;;;9.39;100.00;101458.72;5073420;28;20099;-69
2022/01/02 03:12:14;;;;;;;26.15;9.50;;;;;;;9.40;100.00;101457.81;5073377;28;20069;-70
2022/01/02 03:14:40;;;;;;;29.25;10.23;;;;;;;9.41;100.00;101454.34;5073331;28;20033;-69
2022/01/02 03:17:05;;;;;;;24.85;9.48;;;;;;;9.42;100.00;101456.13;5071849;28;20028;-69
2022/01/02 03:19:32;;;;;;;25.70;9.13;;;;;;;9.46;100.00;101461.47;5073075;28;20094;-69
2022/01/02 03:21:57;;;;;;;26.77;9.20;;;;;;;9.46;100.00;101458.81;5073162;28;20029;-69
2022/01/02 03:24:23;;;;;;;26.63;9.60;;;;;;;9.46;100.00;101458.81;5073434;28;20032;-69
2022/01/02 03:26:48;;;;;;;26.80;9.50;;;;;;;9.49;100.00;101456.22;5073043;28;20459;-70
2022/01/02 03:29:14;;;;;;;28.10;9.90;;;;;;;9.46;100.00;101456.19;5073043;28;20396;-72
2022/01/02 03:31:39;;;;;;;28.33;9.82;;;;;;;9.41;100.00;101449.06;5073013;28;20032;-70
2022/01/02 03:34:04;;;;;;;27.35;9.65;;;;;;;9.41;100.00;101451.69;5071181;28;20036;-71
2022/01/02 03:36:30;;;;;;;28.73;9.75;;;;;;;9.39;100.00;101456.06;5072740;28;20032;-69
2022/01/02 03:38:55;;;;;;;27.77;10.32;;;;;;;9.39;100.00;101461.34;5072867;28;20577;-69
2022/01/02 03:41:20;;;;;;;27.85;9.57;;;;;;;9.44;100.00;101469.34;5105811;28;20032;-72
2022/01/02 03:43:45;;;;;;;25.73;9.23;;;;;;;9.48;100.00;101459.72;5073088;28;20016;-71
2022/01/02 03:46:11;;;;;;;26.73;9.65;;;;;;;9.50;100.00;101458.03;5072933;28;20028;-72
2022/01/02 03:48:37;;;;;;;27.63;9.43;;;;;;;9.53;100.00;101451.03;5072986;28;20111;-72
2022/01/02 03:51:02;;;;;;;25.40;9.70;;;;;;;9.51;100.00;101451.84;5072664;28;20024;-69
2022/01/02 03:53:27;;;;;;;27.15;9.98;;;;;;;9.45;100.00;101443.84;5072881;28;20024;-69
2022/01/02 03:55:53;;;;;;;27.20;9.93;;;;;;;9.43;100.00;101438.53;5072854;28;20056;-71
2022/01/02 03:58:19;;;;;;;27.33;10.00;;;;;;;9.39;100.00;101429.69;5072685;28;20108;-70
2022/01/02 04:00:45;;;;;;;27.30;9.60;;;;;;;9.38;100.00;101430.53;5072911;28;20089;-73
2022/01/02 04:03:10;;;;;;;24.98;9.48;;;;;;;9.36;100.00;101423.44;5072804;28;20467;-69
2022/01/02 04:05:36;;;;;;;28.20;9.80;;;;;;;9.40;100.00;101409.44;5072807;28;20029;-71
2022/01/02 04:08:01;;;;;;;25.58;9.13;;;;;;;9.37;100.00;101410.28;5072437;28;20059;-71
2022/01/02 04:10:27;;;;;;;27.27;10.10;;;;;;;9.39;100.00;101398.00;5072796;28;20051;-69
2022/01/02 04:12:52;;;;;;;27.08;10.00;;;;;;;9.37;100.00;101393.56;5072476;28;20494;-70
2022/01/02 04:15:17;;;;;;;25.67;9.50;;;;;;;9.37;100.00;101398.84;5072267;28;20115;-71
2022/01/02 04:17:43;;;;;;;26.13;9.45;;;;;;;9.45;100.00;101401.59;5072645;28;20021;-70
2022/01/02 04:20:11;;;;;;;27.98;9.63;;;;;;;9.40;100.00;101402.41;5072394;28;20021;-72
2022/01/02 04:22:37;;;;;;;27.20;9.68;;;;;;;9.39;100.00;101398.00;5072333;28;20032;-69
2022/01/02 04:25:03;;;;;;;26.40;9.63;;;;;;;9.38;100.00;101396.22;5071261;28;20031;-69
2022/01/02 04:27:29;;;;;;;26.83;9.52;;;;;;;9.35;100.00;101393.53;5072341;28;20531;-70
2022/01/02 04:29:54;;;;;;;28.55;9.70;;;;;;;9.35;100.00;101401.47;5072469;28;20083;-69
2022/01/02 04:32:20;;;;;;;24.73;9.27;;;;;;;9.35;100.00;101396.19;5072415;28;20060;-72
2022/01/02 04:34:45;;;;;;;26.35;9.77;;;;;;;9.34;100.00;101399.66;5054684;28;20071;-73
2022/01/02 04:37:11;;;;;;;26.73;10.10;;;;;;;9.31;100.00;101394.34;5072592;28;20117;-73
2022/01/02 04:39:37;;;;;;;27.65;10.43;;;;;;;9.28;100.00;101382.84;5072177;28;20028;-69
2022/01/02 04:42:03;;;;;;;26.95;9.88;;;;;;;9.28;100.00;101383.72;5072497;28;20052;-72
2022/01/02 04:44:29;;;;;;;30.17;11.05;;;;;;;9.25;100.00;101370.50;5072550;28;20029;-70
2022/01/02 04:46:54;;;;;;;27.00;10.35;;;;;;;9.28;100.00;101364.38;5074955;28;20059;-70
2022/01/02 04:49:19;;;;;;;26.90;10.43;;;;;;;9.28;100.00;101356.47;5076424;28;20060;-72
2022/01/02 04:51:45;;;;;;;29.15;10.43;;;;;;;9.23;100.00;101354.63;5076187;28;20081;-71
2022/01/02 04:54:10;;;;;;;29.00;10.95;;;;;;;9.26;100.00;101353.78;5075847;28;20024;-71
2022/01/02 04:56:36;;;;;;;27.40;10.50;;;;;;;9.22;100.00;101347.56;5075827;28;20037;-70
2022/01/02 04:59:01;;;;;;;27.38;10.57;;;;;;;9.19;100.00;101342.25;5076093;28;20040;-70
2022/01/02 05:01:27;;;;;;;28.05;11.20;;;;;;;9.18;100.00;101334.31;5074489;28;20134;-70
2022/01/02 05:03:52;;;;;;;27.92;10.57;;;;;;;9.17;100.00;101301.75;5075736;28;20074;-70
2022/01/02 05:06:18;;;;;;;28.48;10.55;;;;;;;9.12;100.00;101294.63;5075988;28;20483;-69
2022/01/02 05:08:45;;;;;;;25.20;10.23;;;;;;;9.14;100.00;101295.53;5075670;28;20471;-73
2022/01/02 05:11:10;;;;;;;29.17;10.70;;;;;;;9.11;100.00;101292.84;5076006;28;20032;-72
2022/01/02 05:13:36;;;;;;;28.10;10.73;;;;;;;9.08;100.00;101291.91;5075467;28;20028;-70
2022/01/02 05:16:01;;;;;;;27.45;10.63;;;;;;;9.14;100.00;101295.53;5075423;28;20036;-70
2022/01/02 05:18:27;;;;;;;28.60;10.73;;;;;;;9.08;100.00;101276.09;5075767;28;20028;-71
2022/01/02 05:20:52;;;;;;;25.80;9.68;;;;;;;9.07;100.00;101284.91;5075510;28;20017;-70
2022/01/02 05:23:19;;;;;;;28.73;11.02;;;;;;;9.07;100.00;101286.63;5075460;28;20096;-69
2022/01/02 05:25:45;;;;;;;25.98;10.05;;;;;;;9.10;100.00;101283.16;5075463;28;20017;-72
2022/01/02 05:28:11;;;;;;;28.00;10.52;;;;;;;9.06;100.00;101272.56;5071191;28;20024;-71
2022/01/02 05:30:40;;;;;;;25.42;9.75;;;;;;;9.09;100.00;101277.00;5075126;28;20083;-70
2022/01/02 05:33:07;;;;;;;26.90;10.13;;;;;;;9.10;100.00;101273.50;5075734;28;20030;-70
2022/01/02 05:35:33;;;;;;;29.10;10.65;;;;;;;9.07;100.00;101265.53;5075176;28;20032;-69
2022/01/02 05:37:59;;;;;;;28.83;10.98;;;;;;;9.06;100.00;101262.00;5075170;28;20020;-70
2022/01/02 05:40:30;;;;;;;28.85;11.05;;;;;;;9.07;100.00;101255.88;5075200;28;20020;-69
2022/01/02 05:42:55;;;;;;;30.20;11.43;;;;;;;9.08;100.00;101260.28;5075294;28;20040;-69
2022/01/02 05:45:21;;;;;;;30.65;12.15;;;;;;;9.10;100.00;101243.59;5075347;28;20024;-70
2022/01/02 05:47:46;;;;;;;27.30;10.75;;;;;;;9.05;100.00;101248.81;5075286;28;20375;-70
2022/01/02 05:50:11;;;;;;;29.08;11.35;;;;;;;9.05;100.00;101243.53;5075031;28;20050;-70
2022/01/02 05:52:37;;;;;;;26.88;10.93;;;;;;;9.03;100.00;101238.22;5074864;28;20062;-70
2022/01/02 05:55:02;;;;;;;28.92;11.18;;;;;;;9.01;100.00;101226.78;5073869;28;20098;-70
2022/01/02 05:57:27;;;;;;;28.27;11.10;;;;;;;9.02;100.00;101209.19;5073986;28;20032;-70
2022/01/02 05:59:53;;;;;;;29.70;11.13;;;;;;;9.00;100.00;101209.16;5074829;28;20021;-70
2022/01/02 06:02:18;;;;;;;28.42;10.57;;;;;;;8.99;100.00;101201.22;5075000;28;20467;-69
2022/01/02 06:04:43;;;;;;;27.98;10.68;;;;;;;8.98;100.00;101187.13;5074730;28;20025;-70
2022/01/02 06:07:09;;;;;;;25.63;10.07;;;;;;;9.02;100.00;101178.44;5074659;28;20028;-70
2022/01/02 06:09:34;;;;;;;26.67;10.13;;;;;;;8.98;100.00;101173.09;5074774;28;20052;-69
2022/01/02 06:12:00;;;;;;;26.00;9.90;;;;;;;8.97;100.00;101180.13;5074467;28;20035;-70
2022/01/02 06:14:26;;;;;;;25.38;9.70;;;;;;;8.99;100.00;101178.38;5074714;28;20020;-70
2022/01/02 06:16:51;;;;;;;30.40;10.00;;;;;;;8.95;100.00;101168.63;5074650;28;20036;-70
2022/01/02 06:19:16;;;;;;;26.40;9.80;;;;;;;8.92;100.00;101157.16;5074464;28;20028;-70
2022/01/02 06:21:42;;;;;;;25.80;9.15;;;;;;;8.93;100.00;101157.19;5073449;28;20032;-70
2022/01/02 06:24:07;;;;;;;25.55;9.38;;;;;;;8.94;100.00;101131.69;5074331;28;20020;-70
2022/01/02 06:26:32;;;;;;;24.83;8.80;;;;;;;8.92;100.00;101133.44;5074238;28;20032;-69
2022/01/02 06:29:02;;;;;;;27.27;9.10;;;;;;;8.92;100.00;101120.25;5073325;28;20544;-69
2022/01/02 06:31:28;;;;;;;24.17;8.93;;;;;;;8.89;100.00;101105.28;5073986;28;20044;-70
2022/01/02 06:33:53;;;;;;;23.58;8.70;;;;;;;8.87;100.00;101101.75;5074092;28;20046;-69
2022/01/02 06:36:18;;;;;;;24.63;8.63;;;;;;;8.88;100.00;101093.84;5074191;28;20119;-69
2022/01/02 06:38:44;;;;;;;23.63;8.50;;;;;;;8.86;100.00;101073.59;5074071;28;20023;-70
2022/01/02 06:41:11;;;;;;;22.80;8.27;;;;;;;8.85;100.00;101071.81;5072883;28;20032;-70
2022/01/02 06:43:37;;;;;;;24.70;8.70;;;;;;;8.83;100.00;101063.00;5074100;28;20075;-70
2022/01/02 06:46:02;;;;;;;23.42;8.65;;;;;;;8.80;100.00;101044.50;5073834;28;20048;-73
2022/01/02 06:48:27;;;;;;;21.73;8.07;;;;;;;8.81;100.00;101031.34;5072757;28;20119;-71
2022/01/02 06:50:53;;;;;;;24.33;7.85;;;;;;;8.80;100.00;101020.78;5072911;28;20043;-73
2022/01/02 06:53:18;;;;;;;23.02;7.85;;;;;;;8.79;100.00;101029.53;5073744;28;20029;-71
2022/01/02 06:55:43;;;;;;;23.08;7.93;;;;;;;8.79;100.00;101032.19;5073647;28;20112;-70
2022/01/02 06:58:09;;;;;;;23.05;8.05;;;;;;;8.77;100.00;101028.66;5073989;28;20035;-70
2022/01/02 07:00:34;;;;;;;22.17;7.50;;;;;;;8.77;100.00;101018.09;5073871;28;20460;-70
2022/01/02 07:02:59;;;;;;;22.20;7.40;;;;;;;8.77;100.00;101011.06;5073885;28;20017;-70
2022/01/02 07:05:25;;;;;;;21.83;7.32;;;;;;;8.79;100.00;101003.19;5073404;28;20426;-71
2022/01/02 07:07:52;;;;;;;23.38;6.97;;;;;;;8.76;100.00;101009.28;5073450;28;20040;-71
2022/01/02 07:10:18;;;;;;;21.30;7.40;;;;;;;8.80;100.00;101004.97;5073538;28;20112;-72
2022/01/02 07:12:43;;;;;;;22.92;7.18;;;;;;;8.80;100.00;101020.78;5073301;28;20104;-73
2022/01/02 07:15:10;;;;;;;22.35;7.05;;;;;;;8.81;100.00;101023.44;5073448;28;20119;-72
2022/01/02 07:17:36;;;;;;;23.05;7.30;;;;;;;8.82;100.00;101019.03;5073359;28;20028;-73
2022/01/02 07:20:04;;;;;;;23.33;7.05;;;;;;;8.84;100.00;101031.38;5073125;28;20077;-72
2022/01/02 07:22:29;;;;;;;21.88;7.20;;;;;;;8.91;100.00;101037.63;5073374;28;20028;-70
2022/01/02 07:24:55;;;;;;;21.58;6.43;;;;;;;8.90;100.00;101030.59;5073317;28;20036;-71
2022/01/02 07:27:21;;;;;;;20.05;6.43;;;;;;;8.86;100.00;101016.47;5073001;28;20024;-70
2022/01/02 07:29:50;;;;;;;19.85;6.50;;;;;;;8.85;100.00;101011.16;5072740;28;20049;-71
2022/01/02 07:32:15;;;;;;;23.08;7.47;;;;;;;8.80;100.00;100995.28;5073447;28;20020;-71
2022/01/02 07:34:42;;;;;;;21.60;7.28;;;;;;;8.75;100.00;100993.47;5073452;28;20493;-70
2022/01/02 07:37:08;;;;;;;21.23;7.28;;;;;;;8.79;100.00;100990.88;5073143;28;20039;-70
2022/01/02 07:39:34;;;;;;;21.55;7.18;;;;;;;8.79;100.00;100997.91;5072926;28;20052;-70
2022/01/02 07:41:59;;;;;;;20.08;6.63;;;;;;;8.80;100.00;101004.97;5072849;28;20062;-72
2022/01/02 07:44:24;;;;;;;21.48;6.43;;;;;;;8.77;100.00;100994.38;5072624;28;20053;-72
2022/01/02 07:46:49;;;;;;;20.02;6.30;;;;;;;8.88;100.00;100992.75;5072974;28;20103;-71
2022/01/02 07:49:15;;;;;;;20.65;6.20;;;;;;;8.87;100.00;101004.19;5073034;28;20106;-70
2022/01/02 07:51:40;;;;;;;22.10;5.90;;;;;;;8.95;100.00;101007.78;5072660;28;20032;-70
2022/01/02 07:54:05;;;;;;;18.90;6.10;;;;;;;8.87;100.00;101018.25;5072983;28;20043;-69
2022/01/02 07:56:31;;;;;;;20.73;6.13;;;;;;;8.89;100.00;101023.53;5072464;28;20387;-70
2022/01/02 07:58:58;;;;;;;20.20;6.60;;;;;;;8.89;100.00;101036.72;5069308;28;20029;-71
2022/01/02 08:01:23;;;;;;;18.52;6.07;;;;;;;8.85;100.00;101040.16;5071225;28;20082;-70
2022/01/02 08:03:49;;;;;;;23.10;6.53;;;;;;;8.83;100.00;101049.81;5069659;28;20131;-70
2022/01/02 08:06:14;;;;;;;21.08;6.35;;;;;;;8.79;100.00;101029.53;5071619;28;20426;-69
2022/01/02 08:08:39;;;;;;;20.65;6.60;;;;;;;8.80;100.00;101036.59;5070654;28;20425;-68
2022/01/02 08:11:05;;;;;;;21.25;6.97;;;;;;;8.80;100.00;101028.69;5070674;28;20024;-70
2022/01/02 08:13:30;;;;;;;21.20;6.85;;;;;;;8.81;100.00;101033.06;5071178;28;20056;-70
2022/01/02 08:15:56;;;;;;;19.77;6.40;;;;;;;8.88;100.00;101030.56;5070835;28;20021;-70
2022/01/02 08:18:21;;;;;;;21.15;6.72;;;;;;;8.81;100.00;101039.25;5070017;28;20040;-71
2022/01/02 08:20:47;;;;;;;20.77;6.80;;;;;;;8.83;100.00;101048.06;5071499;28;20017;-72
2022/01/02 08:23:13;;;;;;;18.85;6.60;;;;;;;8.85;100.00;101048.09;5077186;28;20079;-70
2022/01/02 08:25:39;;;;;;;20.13;6.47;;;;;;;8.92;100.00;101047.31;5076780;28;20089;-69
2022/01/02 08:28:04;;;;;;;21.17;6.65;;;;;;;8.92;100.00;101042.03;5077065;28;20455;-69
2022/01/02 08:30:30;;;;;;;21.67;7.07;;;;;;;8.88;100.00;101001.56;5077453;28;20472;-70
2022/01/02 08:32:55;;;;;;;21.20;6.97;;;;;;;8.88;100.00;101014.75;5077819;28;20032;-70
2022/01/02 08:35:20;;;;;;;20.92;6.55;;;;;;;8.96;100.00;101053.53;5077901;28;20090;-72
2022/01/02 08:37:46;;;;;;;20.17;5.97;;;;;;;8.98;100.00;101020.16;5075843;28;20089;-72
2022/01/02 08:40:11;;;;;;;21.33;6.30;;;;;;;9.02;100.00;101043.94;5076517;28;20052;-73
2022/01/02 08:42:37;;;;;;;18.60;5.90;;;;;;;8.98;100.00;101041.25;5075882;28;20028;-72
2022/01/02 08:45:02;;;;;;;20.40;5.95;;;;;;;9.00;100.00;101029.84;5076409;28;20096;-71
2022/01/02 08:47:28;;;;;;;19.20;5.72;;;;;;;9.06;100.00;101032.56;5077499;28;20020;-72
2022/01/02 08:49:53;;;;;;;18.85;6.05;;;;;;;9.11;100.00;101039.66;5075274;28;20020;-71
2022/01/02 08:52:19;;;;;;;19.70;6.13;;;;;;;9.21;100.00;101038.91;5077275;28;20032;-70
2022/01/02 08:54:44;;;;;;;19.45;6.18;;;;;;;9.35;100.00;101050.53;5078021;28;20036;-71
2022/01/02 08:57:10;;;;;;;19.73;6.20;;;;;;;9.40;100.00;101050.59;5077556;28;20031;-71
2022/01/02 08:59:36;;;;;;;20.23;6.07;;;;;;;9.41;100.00;101050.59;5076705;28;20021;-71
2022/01/02 09:02:01;;;;;;;19.85;6.45;;;;;;;9.37;100.00;101040.88;5076660;28;20032;-71
2022/01/02 09:04:26;;;;;;;19.23;6.72;;;;;;;9.46;100.00;101045.38;5076859;28;20020;-70
2022/01/02 09:06:52;;;;;;;20.75;6.43;;;;;;;9.41;100.00;101040.03;5077650;28;20344;-70
2022/01/02 09:09:17;;;;;;;18.92;6.35;;;;;;;9.33;100.00;101031.13;5077140;28;20031;-70
2022/01/02 09:11:43;;;;;;;19.67;6.57;;;;;;;9.55;100.00;101029.66;5077625;28;20025;-70
2022/01/02 09:14:09;;;;;;;20.63;6.90;;;;;;;9.64;100.00;101035.91;5078440;28;20025;-70
2022/01/02 09:16:34;;;;;;;20.83;6.45;;;;;;;9.64;100.00;101034.16;5078284;28;20024;-70
2022/01/02 09:18:59;;;;;;;20.45;7.28;;;;;;;9.72;100.00;101029.84;5078291;28;20021;-70
2022/01/02 09:21:25;;;;;;;21.70;7.38;;;;;;;9.74;100.00;101030.75;5078412;28;20032;-71
2022/01/02 09:23:50;;;;;;;21.40;7.38;;;;;;;9.86;100.00;101034.38;5073290;28;20460;-71
2022/01/02 09:26:15;;;;;;;21.17;7.20;;;;;;;9.95;100.00;101045.06;5076661;28;20025;-71
2022/01/02 09:28:42;;;;;;;20.42;6.78;;;;;;;10.08;100.00;101031.09;5076983;28;20135;-70
2022/01/02 09:31:07;;;;;;;21.48;7.57;;;;;;;10.30;100.00;101041.84;5076923;28;20480;-70
2022/01/02 09:33:33;;;;;;;20.98;7.40;;;;;;;10.64;100.00;101044.78;5072706;28;20041;-70
2022/01/02 09:35:59;;;;;;;20.75;7.50;;;;;;;10.98;100.00;101043.25;5074135;28;20024;-70
2022/01/02 09:38:24;;;;;;;21.02;7.18;;;;;;;11.12;100.00;101024.78;5073357;28;20043;-71
2022/01/02 09:40:50;;;;;;;20.17;7.53;;;;;;;11.19;100.00;101048.66;5074193;28;20016;-70
2022/01/02 09:43:16;;;;;;;20.85;7.22;;;;;;;11.15;100.00;101040.72;5074111;28;20031;-70
2022/01/02 09:45:46;;;;;;;20.90;7.65;;;;;;;11.20;100.00;101043.38;5073716;28;21984;-69
2022/01/02 09:48:11;;;;;;;20.92;7.45;;;;;;;11.08;100.00;101054.78;5073322;28;20025;-70
2022/01/02 09:50:38;;;;;;;22.20;7.95;;;;;;;11.07;100.00;101060.06;5073834;28;20030;-70
2022/01/02 09:53:05;;;;;;;21.00;7.65;;;;;;;11.13;100.00;101055.69;5073620;28;20021;-70
2022/01/02 09:55:30;;;;;;;21.15;7.85;;;;;;;11.20;100.00;101053.06;5073346;28;20089;-71
2022/01/02 09:57:59;;;;;;;20.85;7.70;;;;;;;11.33;100.00;101049.63;5073681;28;20024;-70
2022/01/02 10:00:25;;;;;;;22.08;7.82;;;;;;;11.48;100.00;101059.38;5072894;28;20017;-71
2022/01/02 10:03:17;;;;;;;20.70;7.50;;;;;;;11.61;100.00;101060.31;5073397;28;20089;-70
2022/01/02 10:05:57;;;;;;;20.70;7.40;;;;;;;11.84;100.00;101058.63;5072533;28;20476;-70
2022/01/02 10:08:24;;;;;;;20.85;7.00;;;;;;;12.00;100.00;101056.91;5072630;28;20052;-71
2022/01/02 10:11:01;;;;;;;20.23;7.32;;;;;;;12.23;100.00;101071.94;5072898;28;20029;-71
2022/01/02 10:13:51;;;;;;;20.70;6.80;;;;;;;12.14;100.00;101072.81;5073126;28;20056;-70
2022/01/02 10:16:37;;;;;;;19.77;6.80;;;;;;;11.99;100.00;101070.16;5071946;28;20315;-69
2022/01/02 10:19:26;;;;;;;20.50;6.90;;;;;;;11.90;100.00;101056.84;5070840;28;20021;-72
2022/01/02 10:21:59;;;;;;;21.08;7.10;;;;;;;11.72;100.00;101063.00;5073279;28;20032;-69
2022/01/02 10:24:28;;;;;;;22.17;7.35;;;;;;;11.64;100.00;101063.84;5073118;28;20147;-69
2022/01/02 10:27:10;;;;;;;20.52;7.00;;;;;;;11.68;100.00;101067.41;5072684;28;20035;-70
2022/01/02 10:29:43;;;;;;;23.30;7.32;;;;;;;11.76;100.00;101056.81;5070048;28;20032;-71
2022/01/02 10:32:41;;;;;;;21.92;7.55;;;;;;;11.83;100.00;101066.56;5072241;28;20029;-69
2022/01/02 10:35:21;;;;;;;23.20;7.32;;;;;;;11.80;100.00;101051.53;5071360;28;20105;-70
2022/01/02 10:38:00;;;;;;;20.98;7.10;;;;;;;11.83;100.00;101022.41;5072337;28;20112;-70
2022/01/02 10:40:30;;;;;;;21.50;6.80;;;;;;;11.91;100.00;101050.66;5072091;28;20082;-70
2022/01/02 10:42:56;;;;;;;20.98;6.82;;;;;;;11.94;100.00;101048.06;5072048;28;20024;-69
2022/01/02 10:45:43;;;;;;;21.45;6.97;;;;;;;11.93;100.00;101040.97;5071983;28;20028;-70
2022/01/02 10:48:11;;;;;;;21.23;6.90;;;;;;;11.82;100.00;101039.19;5070244;28;20119;-71
2022/01/02 10:50:38;;;;;;;22.02;6.90;;;;;;;11.78;100.00;101048.00;5072169;28;20033;-69
2022/01/02 10:53:15;;;;;;;20.13;6.80;;;;;;;11.84;100.00;101034.78;5072582;28;20383;-70
2022/01/02 10:55:44;;;;;;;21.70;7.00;;;;;;;11.82;100.00;101038.28;5071079;28;20434;-70
2022/01/02 10:58:10;;;;;;;22.08;6.63;;;;;;;11.79;100.00;101046.22;5070716;28;20016;-70
2022/01/02 11:00:37;;;;;;;21.95;6.80;;;;;;;11.77;100.00;101043.59;5071569;28;20031;-71
2022/01/02 11:03:05;;;;;;;21.38;6.78;;;;;;;11.75;100.00;101042.72;5072346;28;20032;-71
2022/01/02 11:05:31;;;;;;;23.25;6.57;;;;;;;11.82;100.00;101067.44;5070843;28;20044;-70
2022/01/02 11:08:00;;;;;;;22.30;6.75;;;;;;;11.95;100.00;101026.00;5072387;28;20056;-71
2022/01/02 11:10:31;;;;;;;20.58;6.45;;;;;;;12.30;100.00;101041.03;5072212;28;20028;-70
2022/01/02 11:12:57;;;;;;;21.10;6.13;;;;;;;12.90;99.40;101031.28;5068414;28;20078;-70
2022/01/02 11:15:26;;;;;;;21.25;6.30;;;;;;;12.88;97.65;101040.97;5070415;28;20039;-70
2022/01/02 11:17:52;;;;;;;20.63;6.18;;;;;;;13.40;95.13;101028.50;5068426;28;20024;-71